Time;durP1;ratioP1;P1;durP2;ratioP2;P2;SDS_P1;SDS_P2;PMS_P1;PMS_P2;Temp;Humidity;BMP_temperature;BMP_pressure;BME280_temperature;BME280_humidity;BME280_pressure;Samples;Min_cycle;Max_cycle;Signal;HPM_P1;HPM_P2
2021/11/21 00:01:11;;;;;;;14.00;12.77;;;;;;;10.71;53.85;97863.78;8217873;28;20234;-85
2021/11/21 00:05:15;;;;;;;14.50;13.00;;;;;;;10.84;53.33;97848.50;8218988;28;20239;-85
2021/11/21 00:09:18;;;;;;;14.17;12.77;;;;;;;10.76;53.95;97845.44;8250544;28;20238;-85
2021/11/21 00:13:21;;;;;;;13.97;12.67;;;;;;;10.68;53.96;97832.84;8249966;28;20240;-85
2021/11/21 00:17:24;;;;;;;14.33;12.93;;;;;;;10.77;54.22;97834.16;8250510;28;20230;-84
2021/11/21 00:21:29;;;;;;;14.40;12.97;;;;;;;10.64;54.03;97820.09;8249696;28;20535;-84
2021/11/21 00:25:33;;;;;;;14.60;13.30;;;;;;;10.61;54.54;97818.50;8249508;28;20234;-83
2021/11/21 00:29:36;;;;;;;14.10;12.87;;;;;;;10.61;54.28;97810.75;8249494;28;20440;-83
2021/11/21 00:33:39;;;;;;;14.10;12.87;;;;;;;10.74;54.08;97821.38;8249550;28;20230;-82
2021/11/21 00:37:44;;;;;;;14.37;13.07;;;;;;;10.89;53.80;97824.97;8249226;28;20237;-83
2021/11/21 00:41:47;;;;;;;13.83;12.63;;;;;;;10.89;53.64;97818.03;8249354;28;20241;-84
2021/11/21 00:45:51;;;;;;;14.17;12.97;;;;;;;10.81;53.60;97811.53;8254411;28;20234;-85
2021/11/21 00:49:54;;;;;;;15.30;13.87;;;;;;;10.90;53.40;97809.34;8255039;28;20242;-83
2021/11/21 00:54:09;;;;;;;13.83;12.63;;;;;;;10.73;53.91;97812.75;8255102;28;20226;-84
2021/11/21 00:58:13;;;;;;;14.43;13.13;;;;;;;10.98;53.41;97805.56;8254532;28;20314;-83
2021/11/21 01:02:18;;;;;;;15.27;13.87;;;;;;;10.86;53.18;97797.47;8254707;28;20424;-83
2021/11/21 01:06:21;;;;;;;14.60;13.20;;;;;;;10.85;53.04;97813.94;8254730;28;20245;-83
2021/11/21 01:10:28;;;;;;;15.10;13.80;;;;;;;10.83;53.18;97804.53;8254385;28;20301;-83
2021/11/21 01:14:31;;;;;;;15.03;13.73;;;;;;;10.76;53.42;97797.06;8254738;28;20234;-87
2021/11/21 01:18:36;;;;;;;15.47;14.07;;;;;;;10.71;53.21;97796.44;8254706;28;20238;-85
2021/11/21 01:22:39;;;;;;;14.90;13.60;;;;;;;10.63;53.76;97797.72;8254529;28;20234;-86
2021/11/21 01:26:43;;;;;;;16.53;15.03;;;;;;;10.52;53.57;97790.44;8254820;28;20234;-82
2021/11/21 01:30:47;;;;;;;15.90;14.50;;;;;;;10.70;53.49;97793.91;8254283;28;20469;-82
2021/11/21 01:34:50;;;;;;;15.83;14.23;;;;;;;10.79;53.46;97790.06;8253961;28;20560;-82
2021/11/21 01:38:54;;;;;;;15.57;14.10;;;;;;;10.69;53.72;97797.44;8253782;28;20238;-82
2021/11/21 01:42:59;;;;;;;16.97;15.47;;;;;;;10.54;53.93;97780.84;8254030;28;20433;-82
2021/11/21 01:47:05;;;;;;;16.77;15.23;;;;;;;10.64;53.13;97773.50;8255419;28;20206;-82
2021/11/21 01:51:09;;;;;;;16.77;15.17;;;;;;;10.68;53.90;97780.19;8252568;28;20325;-82
2021/11/21 01:55:12;;;;;;;18.00;16.30;;;;;;;10.47;54.32;97772.56;8252953;28;20245;-83
2021/11/21 01:59:17;;;;;;;17.33;15.73;;;;;;;10.73;53.35;97760.94;8252991;28;20423;-82
2021/11/21 02:03:20;;;;;;;17.07;15.43;;;;;;;10.65;53.43;97751.88;8253170;28;20241;-82
2021/11/21 02:07:23;;;;;;;17.33;15.83;;;;;;;10.66;53.34;97736.28;8252011;28;20529;-82
2021/11/21 02:11:27;;;;;;;18.00;16.30;;;;;;;10.64;53.31;97729.47;8252525;28;20535;-83
2021/11/21 02:15:32;;;;;;;19.03;17.07;;;;;;;10.61;53.17;97738.22;8252009;28;20230;-81
2021/11/21 02:19:35;;;;;;;18.37;16.67;;;;;;;10.74;52.89;97726.38;8251156;28;20238;-82
2021/11/21 02:23:40;;;;;;;19.43;17.53;;;;;;;10.63;53.28;97709.69;8251644;28;20234;-83
2021/11/21 02:27:43;;;;;;;18.53;16.73;;;;;;;10.69;53.22;97705.03;8251994;28;20234;-83
2021/11/21 02:31:46;;;;;;;19.70;17.80;;;;;;;10.65;53.35;97703.50;8251982;28;20242;-84
2021/11/21 02:35:51;;;;;;;18.83;17.13;;;;;;;10.55;53.47;97702.28;8250697;28;20245;-84
2021/11/21 02:39:56;;;;;;;17.63;15.80;;;;;;;10.68;53.23;97707.69;8251630;28;20238;-82
2021/11/21 02:43:59;;;;;;;17.60;15.90;;;;;;;10.28;53.94;97692.31;8251604;28;20238;-83
2021/11/21 02:48:01;;;;;;;17.70;15.93;;;;;;;10.43;53.43;97680.38;8251641;28;20238;-87
2021/11/21 02:52:05;;;;;;;18.40;16.70;;;;;;;10.44;53.33;97673.47;8243324;28;20234;-82
2021/11/21 02:56:12;;;;;;;19.27;17.47;;;;;;;10.61;52.81;97660.53;8250856;28;20329;-82
2021/11/21 03:00:16;;;;;;;19.30;17.47;;;;;;;10.47;53.44;97650.88;8250778;28;20238;-83
2021/11/21 03:04:22;;;;;;;19.53;17.73;;;;;;;10.55;53.08;97643.56;8250785;28;20236;-83
2021/11/21 03:08:25;;;;;;;19.90;18.03;;;;;;;10.59;52.82;97646.00;8250406;28;20245;-82
2021/11/21 03:12:30;;;;;;;18.73;16.97;;;;;;;10.49;53.24;97649.06;8250417;28;20234;-82
2021/11/21 03:16:33;;;;;;;19.87;18.07;;;;;;;10.56;53.62;97634.03;8250258;28;20252;-82
2021/11/21 03:20:37;;;;;;;20.20;18.30;;;;;;;10.66;53.41;97631.81;8250360;28;20257;-82
2021/11/21 03:24:40;;;;;;;20.57;18.60;;;;;;;10.55;53.49;97622.03;8250399;28;20424;-82
2021/11/21 03:28:45;;;;;;;20.60;18.60;;;;;;;10.38;53.83;97630.63;8250476;28;20240;-82
2021/11/21 03:32:50;;;;;;;21.00;19.00;;;;;;;10.48;53.72;97637.00;8250418;28;20297;-82
2021/11/21 03:36:53;;;;;;;22.87;20.67;;;;;;;10.36;53.98;97635.03;8250314;28;20426;-82
2021/11/21 03:40:56;;;;;;;21.53;19.33;;;;;;;10.45;53.96;97632.00;8250168;28;20244;-82
2021/11/21 03:45:01;;;;;;;21.83;19.73;;;;;;;10.41;53.39;97629.63;8250220;28;20554;-81
2021/11/21 03:49:05;;;;;;;20.90;18.83;;;;;;;10.54;53.55;97623.75;8240829;28;20563;-81
2021/11/21 03:53:09;;;;;;;21.67;19.37;;;;;;;10.57;53.61;97617.59;8249908;28;20267;-82
2021/11/21 03:57:11;;;;;;;22.30;20.20;;;;;;;10.46;53.89;97602.59;8249795;28;20249;-82
2021/11/21 04:01:16;;;;;;;22.13;19.97;;;;;;;10.55;53.53;97601.31;8249475;28;20244;-82
2021/11/21 04:05:20;;;;;;;22.10;19.90;;;;;;;10.46;54.29;97594.00;8249603;28;20241;-82
2021/11/21 04:09:23;;;;;;;21.70;19.60;;;;;;;10.45;54.30;97584.53;8249834;28;20248;-81
2021/11/21 04:13:26;;;;;;;23.53;21.13;;;;;;;10.47;54.09;97586.16;8249702;28;20401;-82
2021/11/21 04:17:32;;;;;;;22.33;20.07;;;;;;;10.49;53.65;97593.81;8249822;28;20230;-82
2021/11/21 04:21:35;;;;;;;22.27;20.07;;;;;;;10.40;54.04;97596.91;8255873;28;20238;-81
2021/11/21 04:25:38;;;;;;;21.97;19.83;;;;;;;10.26;54.51;97590.63;8256083;28;20240;-80
2021/11/21 04:29:41;;;;;;;22.13;20.00;;;;;;;10.34;54.20;97582.50;8256055;28;20238;-81
2021/11/21 04:33:45;;;;;;;21.70;19.57;;;;;;;10.39;54.04;97564.97;8255802;28;20560;-82
2021/11/21 04:37:49;;;;;;;22.03;19.70;;;;;;;10.41;54.03;97564.91;8255010;28;20234;-81
2021/11/21 04:41:52;;;;;;;21.57;19.57;;;;;;;10.32;54.02;97555.84;8255663;28;20230;-82
2021/11/21 04:45:56;;;;;;;20.43;18.53;;;;;;;10.45;54.32;97546.56;8255462;28;20238;-81
2021/11/21 04:50:01;;;;;;;19.93;18.03;;;;;;;10.32;53.48;97543.75;8254788;28;20238;-82
2021/11/21 04:54:09;;;;;;;20.03;18.03;;;;;;;10.44;53.83;97531.94;8246180;28;20223;-81
2021/11/21 04:58:14;;;;;;;20.20;18.00;;;;;;;10.42;54.05;97530.34;8254576;28;20240;-81
2021/11/21 05:02:17;;;;;;;19.87;17.77;;;;;;;10.34;54.06;97538.50;8254472;28;20238;-80
2021/11/21 05:06:22;;;;;;;20.10;18.10;;;;;;;10.46;54.09;97537.03;8254084;28;20305;-81
2021/11/21 05:10:25;;;;;;;20.00;18.00;;;;;;;10.47;53.89;97531.78;8254479;28;20256;-81
2021/11/21 05:14:28;;;;;;;20.30;18.30;;;;;;;10.55;54.26;97521.88;8254314;28;20435;-81
2021/11/21 05:18:31;;;;;;;19.80;17.80;;;;;;;10.49;54.31;97521.34;8254122;28;20230;-80
2021/11/21 05:22:35;;;;;;;19.70;17.60;;;;;;;10.49;54.00;97519.59;8253973;28;20436;-81
2021/11/21 05:26:38;;;;;;;19.03;17.23;;;;;;;10.50;54.46;97515.25;8253987;28;20238;-80
2021/11/21 05:30:47;;;;;;;20.40;18.20;;;;;;;10.44;54.53;97515.56;8253148;28;20242;-80
2021/11/21 05:34:51;;;;;;;17.83;16.03;;;;;;;10.26;55.00;97504.34;8253733;28;20245;-80
2021/11/21 05:38:56;;;;;;;18.20;16.30;;;;;;;10.39;54.79;97504.59;8253382;28;20242;-80
2021/11/21 05:42:59;;;;;;;16.37;14.77;;;;;;;10.26;54.39;97512.13;8253540;28;20241;-81
2021/11/21 05:47:02;;;;;;;15.07;13.57;;;;;;;10.38;54.30;97508.94;8253393;28;20230;-80
2021/11/21 05:51:05;;;;;;;15.73;14.17;;;;;;;10.20;54.49;97507.25;8253137;28;20257;-81
2021/11/21 05:55:10;;;;;;;15.17;13.67;;;;;;;10.47;53.99;97512.81;8253369;28;20425;-81
2021/11/21 05:59:13;;;;;;;17.00;15.30;;;;;;;9.98;55.99;97513.50;8253273;28;20309;-82
2021/11/21 06:03:15;;;;;;;18.57;16.67;;;;;;;9.91;56.18;97512.13;8253017;28;20559;-81
2021/11/21 06:07:18;;;;;;;18.67;16.67;;;;;;;9.73;57.25;97512.09;8252843;28;20244;-81
2021/11/21 06:11:23;;;;;;;19.07;17.17;;;;;;;9.78;56.54;97509.28;8253059;28;20548;-82
2021/11/21 06:15:26;;;;;;;17.53;15.80;;;;;;;9.76;56.91;97504.19;8252752;28;20390;-82
2021/11/21 06:19:29;;;;;;;17.40;15.63;;;;;;;9.74;57.19;97506.00;8252398;28;20408;-81
2021/11/21 06:23:34;;;;;;;16.47;14.57;;;;;;;9.68;56.59;97498.56;8251852;28;20241;-82
2021/11/21 06:27:38;;;;;;;15.17;13.33;;;;;;;9.45;56.22;97507.41;8251860;28;20245;-82
2021/11/21 06:31:41;;;;;;;13.43;12.03;;;;;;;9.56;55.80;97514.66;8251785;28;20248;-82
2021/11/21 06:35:45;;;;;;;15.23;12.30;;;;;;;9.74;55.32;97507.75;8251821;28;20234;-81
2021/11/21 06:39:48;;;;;;;14.30;12.80;;;;;;;9.69;55.56;97510.59;8251460;28;20400;-82
2021/11/21 06:43:55;;;;;;;14.77;13.07;;;;;;;9.66;56.00;97502.97;8233616;28;20242;-82
2021/11/21 06:48:11;;;;;;;14.70;13.13;;;;;;;9.64;56.20;97503.97;8234980;28;20234;-82
2021/11/21 06:52:15;;;;;;;15.80;14.10;;;;;;;9.59;56.20;97504.16;8218474;28;20219;-83
2021/11/21 06:56:18;;;;;;;16.57;14.77;;;;;;;9.46;56.70;97503.06;8218480;28;20234;-83
2021/11/21 07:00:27;;;;;;;16.87;14.33;;;;;;;9.67;56.52;97509.81;8215864;28;20234;-82
2021/11/21 07:04:30;;;;;;;15.77;14.07;;;;;;;9.72;56.47;97507.84;8218152;28;20242;-82
2021/11/21 07:08:33;;;;;;;17.10;14.30;;;;;;;9.70;57.06;97511.41;8217807;28;20247;-82
2021/11/21 07:12:37;;;;;;;17.93;14.57;;;;;;;9.76;56.56;97505.94;8218051;28;20235;-82
2021/11/21 07:16:50;;;;;;;18.47;15.40;;;;;;;9.63;56.67;97500.50;8218093;28;20235;-82
2021/11/21 07:20:53;;;;;;;17.20;15.37;;;;;;;9.73;57.10;97509.53;8217959;28;20246;-86
2021/11/21 07:24:56;;;;;;;16.93;15.23;;;;;;;9.57;57.21;97505.97;8218036;28;20246;-82
2021/11/21 07:29:00;;;;;;;17.03;15.27;;;;;;;9.67;57.20;97503.78;8217894;28;20227;-81
2021/11/21 07:33:07;;;;;;;17.43;15.73;;;;;;;9.64;57.01;97498.78;8217527;28;20235;-81
2021/11/21 07:37:11;;;;;;;18.33;16.07;;;;;;;9.47;57.45;97502.16;8217440;28;20233;-80
2021/11/21 07:41:14;;;;;;;19.23;17.33;;;;;;;9.31;58.08;97487.38;8215349;28;20237;-80
2021/11/21 07:45:17;;;;;;;21.70;16.97;;;;;;;9.69;57.14;97495.06;8217609;28;20529;-80
2021/11/21 07:49:22;;;;;;;17.03;15.33;;;;;;;9.89;56.46;97509.59;8217301;28;20238;-81
2021/11/21 07:53:26;;;;;;;18.73;15.67;;;;;;;9.98;55.15;97514.31;8220277;28;20230;-82
2021/11/21 07:57:29;;;;;;;17.67;15.87;;;;;;;10.14;55.73;97505.81;8224036;28;20245;-82
2021/11/21 08:01:32;;;;;;;17.33;15.53;;;;;;;10.20;55.79;97517.59;8223021;28;20238;-81
2021/11/21 08:05:37;;;;;;;18.70;16.70;;;;;;;10.18;55.94;97517.69;8223086;28;20239;-82
2021/11/21 08:09:40;;;;;;;23.30;17.83;;;;;;;10.12;55.74;97511.06;8223256;28;20261;-82
2021/11/21 08:13:43;;;;;;;22.77;19.60;;;;;;;9.45;57.61;97512.56;8221092;28;20230;-83
2021/11/21 08:17:46;;;;;;;22.83;20.33;;;;;;;9.42;57.13;97510.13;8223866;28;20567;-83
2021/11/21 08:21:50;;;;;;;22.17;19.63;;;;;;;9.51;56.89;97520.03;8242452;28;20231;-84
2021/11/21 08:25:55;;;;;;;20.47;18.10;;;;;;;9.33;57.24;97511.41;8240205;28;20241;-83
2021/11/21 08:29:58;;;;;;;20.23;17.50;;;;;;;9.42;55.49;97511.88;8255595;28;20234;-82
2021/11/21 08:34:01;;;;;;;17.87;16.03;;;;;;;9.23;56.57;97509.31;8246797;28;20443;-84
2021/11/21 08:38:07;;;;;;;20.10;18.00;;;;;;;9.27;55.87;97516.88;8235602;28;20223;-82
2021/11/21 08:42:10;;;;;;;18.13;15.37;;;;;;;9.47;56.04;97518.50;8233317;28;20302;-83
2021/11/21 08:46:15;;;;;;;14.50;13.07;;;;;;;8.99;56.78;97512.13;8222990;28;20239;-83
2021/11/21 08:50:18;;;;;;;14.00;12.60;;;;;;;9.27;55.93;97516.00;8253380;28;20361;-86
2021/11/21 08:54:23;;;;;;;14.00;12.60;;;;;;;9.35;56.19;97514.75;8236957;28;20254;-85
2021/11/21 08:58:26;;;;;;;13.70;12.37;;;;;;;9.79;55.63;97513.56;8254239;28;20233;-83
2021/11/21 09:02:29;;;;;;;16.10;14.50;;;;;;;9.91;54.79;97514.72;8253932;28;20548;-83
2021/11/21 09:06:33;;;;;;;13.20;11.80;;;;;;;10.01;54.71;97513.34;8253652;28;20433;-83
2021/11/21 09:10:37;;;;;;;12.40;11.10;;;;;;;9.96;54.77;97512.75;8254487;28;20590;-83
2021/11/21 09:14:41;;;;;;;13.90;12.40;;;;;;;9.52;56.13;97520.88;8254219;28;20242;-83
2021/11/21 09:18:44;;;;;;;12.57;10.80;;;;;;;9.65;55.60;97521.13;8252360;28;20258;-82
2021/11/21 09:22:48;;;;;;;10.80;9.70;;;;;;;9.51;55.91;97512.28;8252507;28;20234;-82
2021/11/21 09:26:53;;;;;;;10.77;9.77;;;;;;;9.50;55.56;97520.09;8252777;28;20420;-81
2021/11/21 09:30:57;;;;;;;11.03;9.93;;;;;;;9.63;55.71;97516.03;8252346;28;20226;-83
2021/11/21 09:35:00;;;;;;;12.67;11.13;;;;;;;9.30;57.17;97519.28;8251970;28;20226;-81
2021/11/21 09:39:04;;;;;;;11.23;10.13;;;;;;;9.55;56.23;97520.72;8251936;28;20218;-82
2021/11/21 09:43:08;;;;;;;11.00;9.97;;;;;;;9.89;55.29;97516.53;8250980;28;20234;-81
2021/11/21 09:47:13;;;;;;;11.33;10.13;;;;;;;9.93;55.38;97515.47;8251708;28;20233;-81
2021/11/21 09:51:17;;;;;;;10.80;9.70;;;;;;;9.91;55.19;97510.38;8252348;28;20396;-81
2021/11/21 09:55:22;;;;;;;11.43;10.23;;;;;;;9.79;55.09;97504.03;8253137;28;20234;-82
2021/11/21 09:59:53;;;;;;;11.07;10.07;;;;;;;9.79;54.93;97504.03;8252683;28;20237;-82
2021/11/21 10:03:56;;;;;;;11.10;10.00;;;;;;;9.92;54.69;97493.13;8251389;28;20234;-83
2021/11/21 10:08:04;;;;;;;11.03;9.77;;;;;;;10.14;53.96;97482.53;8251840;28;20238;-82
2021/11/21 10:12:08;;;;;;;9.00;8.10;;;;;;;10.16;53.50;97491.03;8251402;28;20533;-82
2021/11/21 10:16:30;;;;;;;9.03;8.13;;;;;;;10.32;53.26;97480.81;8250490;28;20230;-81
2021/11/21 10:20:34;;;;;;;9.80;8.80;;;;;;;10.01;53.97;97484.88;8251092;28;20548;-81
2021/11/21 10:24:37;;;;;;;10.40;9.30;;;;;;;10.10;53.52;97474.06;8249182;28;20541;-81
2021/11/21 10:28:40;;;;;;;11.63;10.43;;;;;;;10.20;53.48;97471.03;8251212;28;20405;-81
2021/11/21 10:32:51;;;;;;;12.60;11.30;;;;;;;10.29;53.44;97471.38;8251080;28;20244;-80
2021/11/21 10:36:54;;;;;;;10.23;9.23;;;;;;;9.96;54.36;97467.00;8249063;28;20237;-80
2021/11/21 10:40:57;;;;;;;9.57;8.67;;;;;;;10.18;54.35;97460.75;8250906;28;20563;-81
2021/11/21 10:45:00;;;;;;;10.70;9.37;;;;;;;10.27;54.03;97459.44;8251486;28;20230;-81
2021/11/21 10:49:27;;;;;;;9.70;8.77;;;;;;;10.33;53.80;97464.34;8250870;28;20563;-81
2021/11/21 10:53:33;;;;;;;9.70;8.53;;;;;;;10.47;53.67;97451.53;8250660;28;20234;-81
2021/11/21 10:57:36;;;;;;;9.50;8.43;;;;;;;10.44;53.53;97446.50;8250341;28;20254;-81
2021/11/21 11:01:39;;;;;;;9.20;7.90;;;;;;;10.41;53.46;97441.47;8250266;28;20245;-81
2021/11/21 11:05:44;;;;;;;9.63;8.73;;;;;;;10.47;53.44;97441.19;8241852;28;20261;-80
2021/11/21 11:09:47;;;;;;;9.20;8.30;;;;;;;10.57;53.39;97438.94;8237557;28;20234;-81
2021/11/21 11:13:50;;;;;;;9.90;8.97;;;;;;;10.53;53.24;97429.66;8233784;28;20405;-81
2021/11/21 11:17:53;;;;;;;9.50;8.50;;;;;;;10.54;52.82;97426.97;8234174;28;20226;-82
2021/11/21 11:21:58;;;;;;;9.47;8.57;;;;;;;10.63;53.54;97428.25;8233923;28;20234;-82
2021/11/21 11:26:11;;;;;;;9.03;8.00;;;;;;;10.52;53.02;97420.22;8233570;28;20222;-81
2021/11/21 11:30:15;;;;;;;7.77;6.97;;;;;;;10.53;52.88;97421.91;8233177;28;20222;-82
2021/11/21 11:34:34;;;;;;;7.27;6.57;;;;;;;10.35;52.67;97413.34;8233642;28;20427;-80
2021/11/21 11:38:40;;;;;;;7.87;6.33;;;;;;;10.42;53.07;97416.44;8234999;28;20246;-81
2021/11/21 11:42:43;;;;;;;7.53;6.60;;;;;;;10.51;52.87;97411.63;8238528;28;20230;-81
2021/11/21 11:46:46;;;;;;;7.20;6.50;;;;;;;10.50;53.25;97412.53;8233351;28;20230;-81
2021/11/21 11:50:49;;;;;;;6.97;6.27;;;;;;;10.60;52.73;97412.03;8232335;28;20242;-82
2021/11/21 11:55:09;;;;;;;9.03;8.13;;;;;;;10.68;53.04;97400.38;8229326;28;20238;-82
2021/11/21 11:59:24;;;;;;;9.70;8.70;;;;;;;10.63;53.07;97402.34;8217558;28;20231;-82
2021/11/21 12:03:41;;;;;;;9.20;8.30;;;;;;;10.44;53.48;97407.69;8233183;28;20238;-84
2021/11/21 12:07:44;;;;;;;9.40;8.50;;;;;;;10.48;53.41;97396.25;8248723;28;20246;-83
2021/11/21 12:11:57;;;;;;;9.93;8.77;;;;;;;10.46;53.47;97394.66;8249820;28;20230;-83
2021/11/21 12:16:01;;;;;;;8.40;7.60;;;;;;;10.44;53.73;97401.66;8249743;28;20234;-82
2021/11/21 12:20:06;;;;;;;8.57;7.70;;;;;;;10.60;53.75;97384.38;8249498;28;20253;-83
2021/11/21 12:24:27;;;;;;;7.77;6.93;;;;;;;10.45;54.08;97390.38;8249530;28;20242;-82
2021/11/21 12:28:56;;;;;;;8.60;7.63;;;;;;;10.37;54.21;97389.03;8249309;28;20548;-80
2021/11/21 12:33:02;;;;;;;7.43;6.73;;;;;;;10.35;54.43;97393.44;8249278;28;20242;-80
2021/11/21 12:37:10;;;;;;;9.23;7.30;;;;;;;10.41;54.75;97387.13;8249024;28;20230;-80
2021/11/21 12:41:14;;;;;;;10.30;8.30;;;;;;;10.42;54.84;97382.81;8253563;28;20242;-82
2021/11/21 12:45:20;;;;;;;8.20;7.40;;;;;;;10.28;55.28;97391.22;8255155;28;20544;-83
2021/11/21 12:49:24;;;;;;;18.00;13.47;;;;;;;10.42;55.03;97382.81;8254996;28;20361;-82
2021/11/21 12:53:29;;;;;;;16.73;13.70;;;;;;;10.20;55.62;97370.09;8255050;28;20426;-82
2021/11/21 12:57:46;;;;;;;9.93;8.93;;;;;;;10.46;54.16;97366.19;8253353;28;20236;-83
2021/11/21 13:01:50;;;;;;;9.13;6.80;;;;;;;10.42;54.39;97356.91;8254297;28;20245;-83
2021/11/21 13:05:56;;;;;;;7.90;7.10;;;;;;;10.49;54.27;97358.22;8254007;28;20326;-83
2021/11/21 13:10:18;;;;;;;7.60;6.80;;;;;;;10.46;54.34;97356.66;8254416;28;20234;-82
2021/11/21 13:14:21;;;;;;;7.57;6.53;;;;;;;10.49;54.29;97358.22;8253977;28;20296;-83
2021/11/21 13:18:27;;;;;;;7.63;6.83;;;;;;;10.57;54.88;97354.31;8253996;28;20237;-83
2021/11/21 13:22:55;;;;;;;7.63;6.83;;;;;;;10.59;54.63;97351.66;8254057;28;20236;-83
2021/11/21 13:26:58;;;;;;;8.13;6.20;;;;;;;10.46;54.05;97348.06;8254077;28;20245;-83
2021/11/21 13:31:07;;;;;;;7.33;6.47;;;;;;;10.50;53.86;97352.97;8253706;28;20241;-82
2021/11/21 13:35:19;;;;;;;6.60;6.00;;;;;;;10.50;53.78;97363.34;8228449;28;20357;-83
2021/11/21 13:39:24;;;;;;;6.23;5.63;;;;;;;10.20;53.90;97358.00;8221738;28;20242;-83
2021/11/21 13:43:38;;;;;;;9.70;8.60;;;;;;;10.27;53.19;97343.81;8221672;28;20246;-83
2021/11/21 13:47:42;;;;;;;9.43;8.30;;;;;;;10.36;53.62;97350.31;8221341;28;20242;-83
2021/11/21 13:51:47;;;;;;;7.73;5.60;;;;;;;10.30;53.75;97341.13;8221102;28;20339;-83
2021/11/21 13:56:04;;;;;;;5.77;5.17;;;;;;;10.31;53.87;97354.88;8221084;28;20235;-84
2021/11/21 14:00:10;;;;;;;7.77;5.23;;;;;;;10.33;53.92;97355.63;8220986;28;20235;-83
2021/11/21 14:04:14;;;;;;;6.30;5.70;;;;;;;10.47;54.14;97362.66;8220616;28;20243;-83
2021/11/21 14:08:19;;;;;;;6.13;5.53;;;;;;;10.48;53.60;97359.16;8220632;28;20243;-83
2021/11/21 14:12:23;;;;;;;5.83;5.23;;;;;;;10.48;53.74;97359.16;8220270;28;20234;-83
2021/11/21 14:16:26;;;;;;;5.33;4.83;;;;;;;10.54;53.75;97362.25;8220492;28;20235;-83
2021/11/21 14:20:33;;;;;;;6.17;5.13;;;;;;;10.50;53.41;97363.34;8220367;28;20231;-83
2021/11/21 14:24:38;;;;;;;6.23;5.20;;;;;;;10.47;53.61;97365.25;8220058;28;20234;-83
2021/11/21 14:28:45;;;;;;;7.27;6.53;;;;;;;10.50;55.01;97371.09;8219754;28;20237;-83
2021/11/21 14:32:48;;;;;;;6.40;5.80;;;;;;;10.45;54.02;97370.53;8219955;28;20402;-83
2021/11/21 14:36:52;;;;;;;6.47;5.87;;;;;;;10.45;54.03;97378.31;8219543;28;20241;-83
2021/11/21 14:41:06;;;;;;;5.83;5.10;;;;;;;10.50;53.79;97376.28;8219413;28;20239;-83
2021/11/21 14:45:09;;;;;;;6.07;5.50;;;;;;;10.44;54.11;97375.78;8218666;28;20234;-83
2021/11/21 14:49:13;;;;;;;6.50;5.83;;;;;;;10.48;53.92;97375.53;8219619;28;20478;-83
2021/11/21 14:53:20;;;;;;;7.00;6.00;;;;;;;10.52;54.01;97376.19;8219400;28;20261;-82
2021/11/21 14:57:34;;;;;;;6.83;5.93;;;;;;;10.53;54.08;97381.31;8232961;28;20290;-82
2021/11/21 15:01:39;;;;;;;8.73;7.93;;;;;;;10.40;54.45;97382.03;8218533;28;20414;-83
2021/11/21 15:05:42;;;;;;;8.27;7.50;;;;;;;10.49;54.60;97384.13;8218863;28;20249;-83
2021/11/21 15:09:45;;;;;;;11.70;8.80;;;;;;;10.32;54.81;97391.03;8219122;28;20284;-82
2021/11/21 15:13:51;;;;;;;9.07;8.00;;;;;;;10.44;54.20;97392.16;8218909;28;20239;-83
2021/11/21 15:17:54;;;;;;;9.77;8.67;;;;;;;10.40;54.36;97384.63;8219350;28;20261;-83
2021/11/21 15:21:57;;;;;;;10.80;7.90;;;;;;;10.38;54.23;97395.06;8219248;28;20234;-83
2021/11/21 15:26:00;;;;;;;8.17;7.37;;;;;;;10.10;54.73;97390.44;8219042;28;20293;-80
2021/11/21 15:30:05;;;;;;;7.93;7.13;;;;;;;10.27;54.54;97398.16;8217874;28;20237;-82
2021/11/21 15:34:08;;;;;;;8.97;7.40;;;;;;;10.17;54.71;97404.75;8223701;28;20226;-82
2021/11/21 15:38:11;;;;;;;9.67;8.67;;;;;;;10.26;54.37;97403.41;8233098;28;20234;-83
2021/11/21 15:42:14;;;;;;;11.83;10.20;;;;;;;10.23;55.00;97408.78;8225459;28;20233;-84
2021/11/21 15:46:19;;;;;;;13.17;11.03;;;;;;;10.31;54.38;97406.66;8247530;28;20308;-83
2021/11/21 15:50:22;;;;;;;11.50;10.00;;;;;;;10.20;54.87;97406.34;8229960;28;20226;-83
2021/11/21 15:54:26;;;;;;;7.90;7.10;;;;;;;10.26;54.32;97401.69;8233691;28;20262;-83
2021/11/21 15:58:29;;;;;;;9.57;7.13;;;;;;;10.21;54.52;97395.09;8236180;28;20226;-83
2021/11/21 16:02:33;;;;;;;8.80;5.83;;;;;;;10.23;53.88;97404.44;8231042;28;20254;-84
2021/11/21 16:06:37;;;;;;;8.67;5.63;;;;;;;10.29;54.07;97408.44;8243244;28;20415;-83
2021/11/21 16:10:41;;;;;;;6.90;6.30;;;;;;;10.27;53.79;97415.47;8250118;28;20421;-84
2021/11/21 16:14:44;;;;;;;6.80;6.10;;;;;;;10.12;54.14;97415.31;8253676;28;20238;-84
2021/11/21 16:18:48;;;;;;;6.87;5.90;;;;;;;10.27;53.86;97413.69;8255687;28;20226;-84
2021/11/21 16:22:55;;;;;;;7.27;6.57;;;;;;;10.17;54.16;97418.50;8255126;28;20230;-84
2021/11/21 16:26:58;;;;;;;7.60;6.80;;;;;;;10.13;53.73;97417.00;8255581;28;20237;-84
2021/11/21 16:31:02;;;;;;;7.63;6.20;;;;;;;10.05;53.53;97416.56;8254604;28;20245;-83
2021/11/21 16:35:09;;;;;;;7.40;6.70;;;;;;;10.08;53.87;97424.16;8254843;28;20257;-84
2021/11/21 16:39:12;;;;;;;8.60;7.73;;;;;;;10.18;53.65;97438.31;8255423;28;20422;-84
2021/11/21 16:43:15;;;;;;;9.57;8.57;;;;;;;10.05;54.20;97439.84;8255233;28;20230;-83
2021/11/21 16:47:19;;;;;;;9.53;7.20;;;;;;;10.16;53.88;97441.88;8255005;28;20238;-84
2021/11/21 16:51:23;;;;;;;7.73;6.93;;;;;;;10.20;53.61;97442.56;8254774;28;20293;-84
2021/11/21 16:55:29;;;;;;;9.97;9.03;;;;;;;10.17;53.70;97452.16;8254824;28;20237;-84
2021/11/21 16:59:35;;;;;;;9.00;8.10;;;;;;;10.11;53.87;97452.47;8254881;28;20548;-84
2021/11/21 17:03:40;;;;;;;7.10;6.47;;;;;;;10.20;53.66;97460.69;8251866;28;20423;-84
2021/11/21 17:07:45;;;;;;;10.63;9.63;;;;;;;10.16;53.31;97457.41;8254196;28;20420;-84
2021/11/21 17:11:51;;;;;;;8.13;7.33;;;;;;;10.07;53.64;97461.31;8254771;28;20252;-84
2021/11/21 17:15:54;;;;;;;10.70;9.60;;;;;;;10.06;53.94;97457.03;8254284;28;20245;-83
2021/11/21 17:19:59;;;;;;;10.60;9.50;;;;;;;10.16;53.86;97465.16;8254138;28;20571;-84
2021/11/21 17:24:03;;;;;;;11.87;9.67;;;;;;;10.11;53.62;97457.66;8253442;28;20238;-84
2021/11/21 17:28:07;;;;;;;9.00;8.10;;;;;;;10.10;53.57;97468.06;8253247;28;20230;-84
2021/11/21 17:32:17;;;;;;;8.83;7.63;;;;;;;10.12;54.00;97479.19;8253823;28;20238;-83
2021/11/21 17:36:22;;;;;;;8.40;7.60;;;;;;;10.08;54.30;97483.66;8252391;28;20238;-83
2021/11/21 17:40:27;;;;;;;11.57;9.90;;;;;;;10.12;54.03;97476.59;8252523;28;20241;-83
2021/11/21 17:44:30;;;;;;;19.77;14.07;;;;;;;10.13;53.87;97468.75;8253323;28;20548;-84
2021/11/21 17:48:33;;;;;;;13.27;10.30;;;;;;;10.08;54.40;97472.47;8253268;28;20400;-84
2021/11/21 17:52:36;;;;;;;12.40;10.10;;;;;;;10.13;54.04;97473.09;8253080;28;20242;-83
2021/11/21 17:56:41;;;;;;;11.33;10.20;;;;;;;10.07;54.00;97478.56;8252867;28;20237;-83
2021/11/21 18:00:45;;;;;;;9.90;8.90;;;;;;;10.05;54.05;97480.38;8252913;28;20236;-85
2021/11/21 18:04:49;;;;;;;10.27;9.17;;;;;;;10.12;54.20;97489.53;8252752;28;20528;-82
2021/11/21 18:08:53;;;;;;;11.23;10.07;;;;;;;10.05;54.33;97485.56;8252544;28;20241;-88
2021/11/21 18:12:59;;;;;;;9.00;8.10;;;;;;;10.06;53.91;97492.44;8251488;28;20234;-87
2021/11/21 18:17:03;;;;;;;10.43;8.93;;;;;;;9.95;54.25;97487.78;8252509;28;20551;-85
2021/11/21 18:21:07;;;;;;;10.67;9.23;;;;;;;10.07;53.86;97488.91;8252213;28;20238;-85
2021/11/21 18:25:10;;;;;;;9.20;8.30;;;;;;;10.09;54.19;97500.00;8252281;28;20301;-83
2021/11/21 18:29:15;;;;;;;12.03;10.73;;;;;;;9.97;54.13;97497.13;8252299;28;20242;-83
2021/11/21 18:33:18;;;;;;;9.93;8.80;;;;;;;10.06;53.88;97510.53;8251846;28;20241;-82
2021/11/21 18:37:22;;;;;;;10.40;9.30;;;;;;;10.02;54.24;97496.09;8251175;28;20244;-84
2021/11/21 18:41:25;;;;;;;11.67;9.43;;;;;;;10.03;54.30;97498.56;8251699;28;20242;-88
2021/11/21 18:45:30;;;;;;;14.63;13.23;;;;;;;10.10;53.92;97478.41;8251412;28;20341;-88
2021/11/21 18:49:34;;;;;;;14.10;12.70;;;;;;;10.11;54.24;97495.59;8252199;28;20234;-88
2021/11/21 18:53:39;;;;;;;18.70;14.70;;;;;;;10.09;54.24;97502.59;8252067;28;20249;-86
2021/11/21 18:57:44;;;;;;;15.57;13.93;;;;;;;10.08;54.50;97509.53;8250605;28;20238;-86